map of KTEW home
Great Circle Mapper logo
KTEW - Airport
Location
City:  Mason, Michigan, United States
Name:Mason Jewett Field
ICAO:KTEW
FAA:TEW

Details
Type:Airport (Airfield)
Use:Public/Civil
Latitude:4233'57"N (42.565778)
Longitude:8425'23"W (-84.423193)
Datum:WGS 1984
Elevation:920 ft (280 m)
Runways:1
Longest:4004 × 75 ft (1220 × 23 m), paved

Time
Time Zone:UTC-5 (DST-4)
Local Time:

Weather
METAR:KTEW 231833Z AUTO 00000KT 10SM CLR 26/18 A3008 RMK AO2 T02600179

Related Locations
Nearby:
Farthest:MGV: 11226 mi / 18067 km
Margaret River, WA, AU

Find:

   beyond  
but within

Other Information
Maps:
NOTAMs:
Links:
Sources:

  
flag of United States
flag of Michigan
  

Sectional Chart

Flight Planning
at skyvector.com

Satellite Image

Google Maps Satellite View

 

Copyright © 2004-2014 Karl L. Swartz. All rights reserved.
The Great Circle Mapper name and logo are trademarks of the Great Circle Mapper.
All other trademarks mentioned herein belong to their respective owners.
Please see credits for attibutions and further copyright information.

  Follow gcmap on Facebook Follow gcmap on Twitter

hCard Microformat

Geo Microformat